Time;durP1;ratioP1;P1;durP2;ratioP2;P2;SDS_P1;SDS_P2;PMS_P1;PMS_P2;Temp;Humidity;BMP_temperature;BMP_pressure;BME280_temperature;BME280_humidity;BME280_pressure;Samples;Min_cycle;Max_cycle;Signal;HPM_P1;HPM_P2
2023/08/11 00:01:17;;;;;;;4.93;3.88;;;;;;;18.26;99.02;101814.63;5019550;28;20030;-84
2023/08/11 00:03:43;;;;;;;5.83;3.90;;;;;;;18.24;100.00;101822.28;5035072;28;20397;-84
2023/08/11 00:06:09;;;;;;;6.35;3.72;;;;;;;18.20;100.00;101824.69;5018266;28;20065;-84
2023/08/11 00:08:37;;;;;;;6.47;4.30;;;;;;;18.18;100.00;101821.34;5036729;28;20120;-84
2023/08/11 00:11:02;;;;;;;10.50;3.90;;;;;;;18.12;100.00;101818.75;5018800;28;20029;-84
2023/08/11 00:13:28;;;;;;;9.67;3.93;;;;;;;18.10;100.00;101821.72;5002130;28;20378;-84
2023/08/11 00:15:53;;;;;;;5.13;4.18;;;;;;;18.05;100.00;101816.13;5035325;28;20444;-84
2023/08/11 00:18:19;;;;;;;7.80;4.00;;;;;;;18.03;100.00;101813.63;5018627;28;20110;-84
2023/08/11 00:20:45;;;;;;;7.63;4.07;;;;;;;18.03;100.00;101819.09;5017994;28;20143;-83
2023/08/11 00:23:10;;;;;;;7.05;4.00;;;;;;;17.98;100.00;101818.16;5035372;28;20037;-84
2023/08/11 00:25:36;;;;;;;5.00;3.90;;;;;;;17.94;100.00;101812.31;5034566;28;20075;-84
2023/08/11 00:28:01;;;;;;;5.53;3.93;;;;;;;17.93;100.00;101813.38;5018216;28;20104;-84
2023/08/11 00:30:27;;;;;;;6.00;3.92;;;;;;;17.88;100.00;101813.25;5035608;28;20469;-84
2023/08/11 00:32:52;;;;;;;5.87;3.97;;;;;;;17.85;100.00;101817.31;5035337;28;20063;-84
2023/08/11 00:35:18;;;;;;;5.13;3.53;;;;;;;17.83;100.00;101814.00;5033985;28;20429;-84
2023/08/11 00:37:44;;;;;;;5.03;3.97;;;;;;;17.78;100.00;101819.34;5001368;28;20034;-84
2023/08/11 00:40:11;;;;;;;4.97;3.65;;;;;;;17.72;100.00;101823.06;5034723;28;20462;-84
2023/08/11 00:42:37;;;;;;;6.18;3.92;;;;;;;17.70;100.00;101811.47;5035441;28;20029;-84
2023/08/11 00:45:03;;;;;;;6.03;3.77;;;;;;;17.68;100.00;101814.47;5001288;28;20029;-84
2023/08/11 00:47:29;;;;;;;6.50;3.87;;;;;;;17.65;100.00;101811.38;5033972;28;20837;-84
2023/08/11 00:49:55;;;;;;;7.32;4.15;;;;;;;17.58;100.00;101799.69;5035489;28;20057;-84
2023/08/11 00:52:20;;;;;;;7.17;3.80;;;;;;;17.54;100.00;101802.06;5017489;28;20490;-84
2023/08/11 00:54:46;;;;;;;6.10;4.30;;;;;;;17.50;100.00;101795.38;5034903;28;20364;-84
2023/08/11 00:57:13;;;;;;;5.30;4.13;;;;;;;17.45;100.00;101793.38;5017622;28;20128;-84
2023/08/11 00:59:39;;;;;;;4.50;3.93;;;;;;;17.47;100.00;101795.88;5034561;28;20740;-84
2023/08/11 01:02:04;;;;;;;5.10;4.60;;;;;;;17.43;100.00;101786.44;5034138;28;20029;-84
2023/08/11 01:04:30;;;;;;;5.45;4.55;;;;;;;17.41;100.00;101786.69;5017507;28;20033;-84
2023/08/11 01:07:31;;;;;;;8.70;4.70;;;;;;;17.39;100.00;101785.25;5017822;28;20026;-84
2023/08/11 01:09:56;;;;;;;8.95;5.32;;;;;;;17.33;100.00;101785.13;5030489;28;20496;-84
2023/08/11 01:12:33;;;;;;;5.20;4.60;;;;;;;17.33;100.00;101779.66;5033981;28;20030;-84
2023/08/11 01:15:05;;;;;;;8.63;4.63;;;;;;;17.30;100.00;101787.50;5035310;28;20084;-84
2023/08/11 01:17:32;;;;;;;8.03;5.10;;;;;;;17.27;100.00;101782.50;5033293;28;20041;-85
2023/08/11 01:19:59;;;;;;;5.95;5.03;;;;;;;17.26;100.00;101780.81;5034921;28;20028;-84
2023/08/11 01:22:28;;;;;;;8.85;5.78;;;;;;;17.24;100.00;101777.50;5016799;28;20037;-84
2023/08/11 01:24:55;;;;;;;7.28;5.55;;;;;;;17.22;100.00;101771.41;5033511;28;20061;-84
2023/08/11 01:27:21;;;;;;;9.57;6.07;;;;;;;17.17;100.00;101774.88;5034707;28;20033;-84
2023/08/11 01:29:46;;;;;;;7.93;5.53;;;;;;;17.20;100.00;101779.88;5033544;28;20103;-84
2023/08/11 01:32:12;;;;;;;8.60;5.90;;;;;;;17.15;100.00;101779.75;5000616;28;20060;-84
2023/08/11 01:34:37;;;;;;;10.32;6.18;;;;;;;17.16;100.00;101782.25;5033741;28;20036;-84
2023/08/11 01:37:05;;;;;;;8.90;5.80;;;;;;;17.15;100.00;101780.56;5017751;28;20029;-84
2023/08/11 01:39:33;;;;;;;8.68;6.70;;;;;;;17.13;100.00;101779.97;5001708;28;20033;-84
2023/08/11 01:41:58;;;;;;;10.60;6.70;;;;;;;17.06;100.00;101776.50;5000452;28;20079;-84
2023/08/11 01:44:25;;;;;;;9.20;6.37;;;;;;;17.05;100.00;101779.50;5000418;28;20489;-84
2023/08/11 01:46:56;;;;;;;7.35;6.15;;;;;;;17.05;100.00;101779.50;5033078;28;20116;-84
2023/08/11 01:49:29;;;;;;;9.00;6.68;;;;;;;17.01;100.00;101777.22;5033757;28;20029;-85
2023/08/11 01:51:55;;;;;;;8.55;7.00;;;;;;;16.98;100.00;101777.69;5016611;28;20099;-84
2023/08/11 01:54:22;;;;;;;12.00;7.43;;;;;;;16.96;100.00;101774.38;5017230;28;20168;-84
2023/08/11 01:56:48;;;;;;;12.20;6.90;;;;;;;16.92;100.00;101769.56;5033939;28;20022;-84
2023/08/11 01:59:15;;;;;;;11.00;7.00;;;;;;;16.89;100.00;101772.78;5033563;28;20041;-84
2023/08/11 02:01:41;;;;;;;8.65;6.82;;;;;;;16.89;100.00;101772.78;5033822;28;20398;-85
2023/08/11 02:04:08;;;;;;;10.50;6.70;;;;;;;16.84;100.00;101760.63;5034129;28;20029;-84
2023/08/11 02:06:36;;;;;;;10.95;7.53;;;;;;;16.79;100.00;101767.88;5016655;28;20378;-85
2023/08/11 02:09:04;;;;;;;12.23;7.65;;;;;;;16.75;100.00;101755.69;5033464;28;20033;-85
2023/08/11 02:11:30;;;;;;;9.52;7.65;;;;;;;16.76;100.00;101760.13;5032735;28;20033;-85
2023/08/11 02:13:55;;;;;;;12.40;7.97;;;;;;;16.70;100.00;101755.53;5015938;28;20032;-85
2023/08/11 02:16:20;;;;;;;10.82;7.30;;;;;;;16.69;100.00;101759.38;5032659;28;20127;-85
2023/08/11 02:18:46;;;;;;;10.20;7.57;;;;;;;16.67;100.00;101754.97;5032321;28;20052;-84
2023/08/11 02:21:12;;;;;;;11.30;7.83;;;;;;;16.61;100.00;101750.41;5032601;28;20083;-84
2023/08/11 02:23:38;;;;;;;10.27;8.45;;;;;;;16.59;100.00;101744.31;5032686;28;20381;-84
2023/08/11 02:26:03;;;;;;;11.30;8.00;;;;;;;16.56;100.00;101750.28;5032565;28;20075;-85
2023/08/11 02:28:28;;;;;;;9.30;7.40;;;;;;;16.57;100.00;101754.69;5032507;28;20061;-85
2023/08/11 02:30:54;;;;;;;11.93;7.73;;;;;;;16.55;100.00;101747.75;5016822;28;20026;-85
2023/08/11 02:33:20;;;;;;;11.37;7.93;;;;;;;16.52;100.00;101756.44;5016510;28;20482;-84
2023/08/11 02:35:46;;;;;;;10.30;7.85;;;;;;;16.45;100.00;101762.88;5032686;28;20437;-84
2023/08/11 02:38:13;;;;;;;9.90;7.43;;;;;;;16.41;100.00;101764.41;5015923;28;20030;-84
2023/08/11 02:40:39;;;;;;;10.25;7.75;;;;;;;16.35;100.00;101768.06;5016355;28;20026;-85
2023/08/11 02:43:04;;;;;;;10.37;7.77;;;;;;;16.34;100.00;101766.38;4999279;28;20037;-85
2023/08/11 02:45:30;;;;;;;11.10;7.40;;;;;;;16.32;100.00;101760.31;5032707;28;20076;-85
2023/08/11 02:47:56;;;;;;;11.13;8.17;;;;;;;16.28;100.00;101762.69;5032603;28;20087;-85
2023/08/11 02:50:21;;;;;;;10.15;7.55;;;;;;;16.28;100.00;101767.31;5032543;28;20021;-85
2023/08/11 02:52:47;;;;;;;9.37;7.77;;;;;;;16.27;100.00;101766.50;5031991;28;20046;-84
2023/08/11 02:55:12;;;;;;;11.90;8.27;;;;;;;16.26;100.00;101772.19;5016096;28;20485;-84
2023/08/11 02:57:38;;;;;;;11.23;8.47;;;;;;;16.24;100.00;101769.69;5033802;28;20310;-84
2023/08/11 03:00:14;;;;;;;9.53;8.07;;;;;;;16.18;100.00;101772.50;5035780;28;20119;-84
2023/08/11 03:02:41;;;;;;;13.85;9.05;;;;;;;16.16;100.00;101766.44;5036223;28;20030;-84
2023/08/11 03:05:07;;;;;;;13.25;9.15;;;;;;;16.13;100.00;101762.25;5036581;28;20029;-84
2023/08/11 03:07:38;;;;;;;11.47;8.73;;;;;;;16.08;100.00;101754.72;5035778;28;20025;-85
2023/08/11 03:10:04;;;;;;;12.10;9.23;;;;;;;16.05;100.00;101760.66;5037547;28;20037;-84
2023/08/11 03:12:29;;;;;;;12.80;8.82;;;;;;;16.06;100.00;101756.03;5019709;28;20040;-85
2023/08/11 03:14:58;;;;;;;10.07;8.13;;;;;;;16.02;100.00;101755.66;5019485;28;20033;-84
2023/08/11 03:17:23;;;;;;;16.77;8.65;;;;;;;15.99;100.00;101753.38;5037257;28;20034;-85
2023/08/11 03:19:49;;;;;;;12.63;9.10;;;;;;;15.94;100.00;101755.97;5035881;28;20036;-84
2023/08/11 03:22:17;;;;;;;10.95;8.32;;;;;;;15.92;100.00;101755.38;5019354;28;20045;-85
2023/08/11 03:24:44;;;;;;;11.47;8.93;;;;;;;15.92;100.00;101763.56;5036790;28;20485;-84
2023/08/11 03:27:09;;;;;;;10.48;8.32;;;;;;;15.89;100.00;101756.66;5003182;28;20034;-84
2023/08/11 03:29:35;;;;;;;12.87;9.30;;;;;;;15.87;100.00;101766.13;5035708;28;20083;-85
2023/08/11 03:32:00;;;;;;;11.98;9.02;;;;;;;15.85;100.00;101760.91;5035960;28;20048;-84
2023/08/11 03:34:26;;;;;;;12.83;9.60;;;;;;;15.82;100.00;101750.41;5018945;28;20022;-84
2023/08/11 03:36:51;;;;;;;15.03;8.83;;;;;;;15.81;100.00;101756.13;5019101;28;20072;-84
2023/08/11 03:39:16;;;;;;;14.13;9.07;;;;;;;15.78;100.00;101749.19;5035812;28;20072;-85
2023/08/11 03:41:42;;;;;;;11.53;9.83;;;;;;;15.73;100.00;101746.28;5036143;28;20048;-85
2023/08/11 03:44:07;;;;;;;13.40;9.07;;;;;;;15.73;100.00;101747.13;5037551;28;20159;-84
2023/08/11 03:46:33;;;;;;;13.23;9.57;;;;;;;15.73;100.00;101747.13;5018666;28;20033;-84
2023/08/11 03:48:58;;;;;;;13.97;9.23;;;;;;;15.75;100.00;101744.16;5019131;28;20480;-85
2023/08/11 03:51:24;;;;;;;14.83;9.43;;;;;;;15.71;100.00;101743.78;5035606;28;20088;-85
2023/08/11 03:53:49;;;;;;;14.27;9.95;;;;;;;15.73;100.00;101744.38;5018476;28;20494;-84
2023/08/11 03:56:14;;;;;;;14.80;10.00;;;;;;;15.71;100.00;101745.69;5036817;28;20037;-84
2023/08/11 03:58:43;;;;;;;13.30;9.63;;;;;;;15.68;100.00;101741.50;5035212;28;20038;-84
2023/08/11 04:01:08;;;;;;;14.05;10.60;;;;;;;15.64;100.00;101751.22;5019205;28;20029;-85
2023/08/11 04:03:33;;;;;;;13.13;10.07;;;;;;;15.65;100.00;101749.31;5034920;28;20032;-85
2023/08/11 04:06:00;;;;;;;13.80;9.93;;;;;;;15.65;100.00;101747.44;5035401;28;20033;-84
2023/08/11 04:08:26;;;;;;;18.05;10.50;;;;;;;15.66;100.00;101743.63;5036128;28;20458;-85
2023/08/11 04:10:53;;;;;;;16.08;10.75;;;;;;;15.65;100.00;101752.03;5017464;28;20026;-84
2023/08/11 04:13:18;;;;;;;16.25;11.13;;;;;;;15.60;100.00;101742.66;5035067;28;20068;-84
2023/08/11 04:15:45;;;;;;;13.73;10.37;;;;;;;15.63;100.00;101746.81;5034739;28;20042;-84
2023/08/11 04:18:12;;;;;;;20.13;10.73;;;;;;;15.64;100.00;101751.22;5018598;28;20043;-84
2023/08/11 04:20:37;;;;;;;16.42;10.70;;;;;;;15.60;100.00;101745.38;5034803;28;20025;-84
2023/08/11 04:23:03;;;;;;;14.97;10.57;;;;;;;15.60;100.00;101750.84;5035336;28;20115;-84
2023/08/11 04:25:29;;;;;;;16.35;11.10;;;;;;;15.57;100.00;101743.06;5018253;28;20034;-84
2023/08/11 04:27:55;;;;;;;16.37;10.73;;;;;;;15.57;100.00;101745.81;5035615;28;20044;-84
2023/08/11 04:30:21;;;;;;;17.80;11.35;;;;;;;15.59;100.00;101745.63;5034870;28;20024;-85
2023/08/11 04:32:47;;;;;;;17.90;10.65;;;;;;;15.53;100.00;101746.50;5035157;28;20493;-84
2023/08/11 04:35:13;;;;;;;17.92;11.30;;;;;;;15.57;100.00;101753.19;5035739;28;20083;-84
2023/08/11 04:37:39;;;;;;;16.07;11.33;;;;;;;15.57;100.00;101742.25;5036002;28;20022;-84
2023/08/11 04:40:11;;;;;;;20.17;10.90;;;;;;;15.55;100.00;101747.94;5018164;28;20038;-84
2023/08/11 04:42:37;;;;;;;19.63;11.38;;;;;;;15.57;100.00;101745.81;5035218;28;20037;-84
2023/08/11 04:45:03;;;;;;;23.05;11.27;;;;;;;15.61;100.00;101743.47;5034400;28;20139;-84
2023/08/11 04:47:29;;;;;;;22.15;11.00;;;;;;;15.66;100.00;101740.06;5035421;28;20025;-85
2023/08/11 04:49:55;;;;;;;16.20;11.20;;;;;;;15.70;100.00;101744.84;5034263;28;20033;-84
2023/08/11 04:52:21;;;;;;;14.68;10.85;;;;;;;15.75;100.00;101736.78;5034146;28;20032;-85
2023/08/11 04:54:46;;;;;;;19.33;11.27;;;;;;;15.79;100.00;101729.81;5018508;28;20033;-85
2023/08/11 04:57:12;;;;;;;17.90;11.63;;;;;;;15.85;100.00;101732.72;5034256;28;20037;-84
2023/08/11 04:59:37;;;;;;;14.87;10.80;;;;;;;15.87;100.00;101725.94;5035316;28;20033;-84
2023/08/11 05:02:02;;;;;;;16.37;11.13;;;;;;;15.89;100.00;101723.81;5017787;28;20095;-84
2023/08/11 05:04:28;;;;;;;22.63;10.93;;;;;;;15.95;100.00;101725.63;5034017;28;20116;-84
2023/08/11 05:06:53;;;;;;;18.73;10.73;;;;;;;15.97;100.00;101717.19;5001323;28;20047;-84
2023/08/11 05:09:21;;;;;;;18.63;11.17;;;;;;;16.01;100.00;101717.56;5001340;28;20280;-84
2023/08/11 05:11:46;;;;;;;13.98;10.00;;;;;;;16.06;100.00;101721.28;5035133;28;20079;-84
2023/08/11 05:14:14;;;;;;;18.07;10.37;;;;;;;16.11;100.00;101715.13;5017323;28;20136;-84
2023/08/11 05:16:42;;;;;;;19.05;11.10;;;;;;;16.14;100.00;101715.47;5033777;28;20473;-85
2023/08/11 05:19:08;;;;;;;16.10;10.60;;;;;;;16.18;100.00;101721.34;5033736;28;20038;-84
2023/08/11 05:21:34;;;;;;;19.40;10.45;;;;;;;16.23;100.00;101723.38;5033780;28;20559;-84
2023/08/11 05:23:59;;;;;;;17.73;10.10;;;;;;;16.29;100.00;101719.72;5017103;28;20052;-85
2023/08/11 05:26:24;;;;;;;16.37;9.43;;;;;;;16.32;100.00;101719.25;5033499;28;20033;-84
2023/08/11 05:28:50;;;;;;;16.40;10.02;;;;;;;16.36;100.00;101723.19;5017095;28;20034;-84
2023/08/11 05:31:15;;;;;;;14.93;9.87;;;;;;;16.41;100.00;101717.84;5016726;28;20478;-84
2023/08/11 05:33:44;;;;;;;13.67;9.10;;;;;;;16.45;100.00;101710.81;5034943;28;20036;-88
2023/08/11 05:36:29;;;;;;;17.73;9.55;;;;;;;16.52;100.00;101715.38;5017182;28;20045;-88
2023/08/11 05:38:57;;;;;;;15.80;9.82;;;;;;;16.57;100.00;101713.59;5017013;28;20039;-89
2023/08/11 05:41:23;;;;;;;17.02;9.18;;;;;;;16.61;100.00;101708.50;5016553;28;20041;-87
2023/08/11 05:43:48;;;;;;;17.23;9.47;;;;;;;16.67;100.00;101716.59;5033202;28;20115;-88
2023/08/11 05:46:16;;;;;;;18.33;9.13;;;;;;;16.72;100.00;101715.06;5033168;28;20033;-88
2023/08/11 05:48:42;;;;;;;16.08;9.07;;;;;;;16.76;100.00;101716.28;5032861;28;20037;-86
2023/08/11 05:51:08;;;;;;;14.27;8.63;;;;;;;16.83;100.00;101717.00;5034071;28;20033;-86
2023/08/11 05:53:34;;;;;;;16.20;9.10;;;;;;;16.88;100.00;101714.41;5032701;28;20065;-88
2023/08/11 05:55:59;;;;;;;12.48;7.88;;;;;;;16.95;100.00;101720.59;5016275;28;20080;-88
2023/08/11 05:58:30;;;;;;;14.70;7.97;;;;;;;16.99;100.00;101721.81;5016554;28;20040;-88
2023/08/11 06:00:56;;;;;;;13.75;8.60;;;;;;;17.04;100.00;101717.50;5033988;28;20504;-87
2023/08/11 06:03:22;;;;;;;11.83;7.90;;;;;;;17.10;100.00;101713.84;5034222;28;20029;-86
2023/08/11 06:05:47;;;;;;;14.70;7.88;;;;;;;17.18;100.00;101725.28;5032541;28;20526;-87
2023/08/11 06:08:13;;;;;;;12.40;7.77;;;;;;;17.24;100.00;101723.47;5034017;28;20083;-86
2023/08/11 06:10:41;;;;;;;11.77;7.50;;;;;;;17.31;100.00;101717.88;5016927;28;20167;-86
2023/08/11 06:13:07;;;;;;;14.03;7.80;;;;;;;17.37;100.00;101714.16;5016419;28;20037;-86
2023/08/11 06:15:32;;;;;;;12.80;7.30;;;;;;;17.46;100.00;101723.69;5032811;28;20048;-87
2023/08/11 06:17:58;;;;;;;10.40;7.00;;;;;;;17.53;100.00;101718.09;5033403;28;20045;-86
2023/08/11 06:20:23;;;;;;;10.23;7.20;;;;;;;17.61;100.00;101723.22;5032623;28;20386;-86
2023/08/11 06:22:49;;;;;;;14.50;7.38;;;;;;;17.66;100.00;101719.75;5034202;28;20048;-86
2023/08/11 06:25:16;;;;;;;12.43;6.67;;;;;;;17.73;100.00;101723.19;5032827;28;20087;-86
2023/08/11 06:27:42;;;;;;;13.05;7.00;;;;;;;17.81;100.00;101721.97;5032414;28;20053;-87
2023/08/11 06:30:12;;;;;;;12.70;6.55;;;;;;;17.90;100.00;101716.97;5032357;28;20022;-86
2023/08/11 06:32:37;;;;;;;12.63;7.10;;;;;;;17.95;100.00;101717.91;5032337;28;20044;-86
2023/08/11 06:35:06;;;;;;;9.27;6.07;;;;;;;18.04;100.00;101726.56;5015320;28;20060;-87
2023/08/11 06:37:32;;;;;;;12.70;6.00;;;;;;;18.14;100.00;101723.19;5033275;28;20478;-86
2023/08/11 06:40:00;;;;;;;10.13;5.60;;;;;;;18.20;100.00;101723.06;5032249;28;20032;-86
2023/08/11 06:42:25;;;;;;;11.68;5.35;;;;;;;18.26;100.00;101729.47;5015850;28;20033;-86
2023/08/11 06:44:51;;;;;;;15.67;6.27;;;;;;;18.32;100.00;101728.50;5015878;28;20087;-86
2023/08/11 06:47:17;;;;;;;8.70;5.73;;;;;;;18.38;100.00;101735.75;5033039;28;20124;-86
2023/08/11 06:49:42;;;;;;;10.07;5.82;;;;;;;18.44;99.58;101735.84;5031993;28;20029;-87
2023/08/11 06:52:08;;;;;;;10.17;5.30;;;;;;;18.52;99.96;101732.69;5033649;28;20433;-84
2023/08/11 06:54:34;;;;;;;11.82;5.50;;;;;;;18.57;98.35;101741.03;5033897;28;20080;-86
2023/08/11 06:57:05;;;;;;;11.43;5.67;;;;;;;18.61;98.54;101733.97;5033019;28;20030;-86
2023/08/11 07:03:04;;;;;;;8.32;5.70;;;;;;;18.79;97.78;101738.38;5033707;28;20194;-86
2023/08/11 07:05:32;;;;;;;11.07;5.40;;;;;;;18.88;97.80;101747.94;5032135;28;20040;-87
2023/08/11 07:07:58;;;;;;;12.10;5.90;;;;;;;18.94;96.30;101743.34;5015688;28;20045;-86
2023/08/11 07:10:23;;;;;;;11.70;5.77;;;;;;;18.98;95.82;101741.75;5032024;28;20034;-87
2023/08/11 07:12:51;;;;;;;8.03;5.20;;;;;;;19.05;97.12;101742.44;5032793;28;20030;-87
2023/08/11 07:15:18;;;;;;;8.40;5.00;;;;;;;19.12;96.19;101750.53;5015873;28;20128;-86
2023/08/11 07:17:44;;;;;;;9.90;5.00;;;;;;;19.22;96.67;101747.06;5015150;28;20122;-87
2023/08/11 07:20:10;;;;;;;7.73;5.00;;;;;;;19.29;94.98;101744.97;5031735;28;20470;-86
2023/08/11 07:22:39;;;;;;;9.52;4.55;;;;;;;19.39;96.27;101742.38;5032702;28;20040;-87
2023/08/11 07:28:29;;;;;;;7.83;4.73;;;;;;;19.63;93.74;101750.41;5032991;28;20393;-86
2023/08/11 07:34:17;;;;;;;8.00;4.55;;;;;;;19.88;92.48;101749.94;5032887;28;20033;-87
2023/08/11 07:40:06;;;;;;;9.18;3.92;;;;;;;20.08;90.59;101746.63;5033177;28;20492;-87
2023/08/11 07:42:32;;;;;;;8.67;4.70;;;;;;;20.18;91.34;101737.63;5031962;28;20113;-87
2023/08/11 07:44:57;;;;;;;9.70;4.40;;;;;;;20.26;90.07;101737.16;5016105;28;20034;-87
2023/08/11 07:47:23;;;;;;;9.00;4.30;;;;;;;20.35;88.74;101743.06;5034003;28;20032;-87
2023/08/11 07:49:48;;;;;;;8.02;4.60;;;;;;;20.45;89.54;101748.66;5002495;28;20115;-87
2023/08/11 07:52:14;;;;;;;9.20;4.90;;;;;;;20.54;89.81;101750.97;5035556;28;20507;-86
2023/08/11 07:54:40;;;;;;;8.97;4.57;;;;;;;20.64;89.07;101753.81;5036775;28;20128;-87
2023/08/11 07:57:05;;;;;;;7.20;4.28;;;;;;;20.75;87.40;101754.78;5018370;28;20038;-87
2023/08/11 07:59:31;;;;;;;7.90;4.17;;;;;;;20.86;83.22;101759.28;5034802;28;20052;-87
2023/08/11 08:01:56;;;;;;;7.90;4.30;;;;;;;20.97;81.10;101755.50;5035002;28;20103;-87
2023/08/11 08:04:22;;;;;;;6.60;3.85;;;;;;;21.08;81.69;101755.59;5018569;28;20099;-87
2023/08/11 08:06:47;;;;;;;5.83;4.20;;;;;;;21.12;80.87;101751.22;5019116;28;20099;-86
2023/08/11 08:09:14;;;;;;;7.17;4.13;;;;;;;21.20;82.70;101759.84;5035134;28;20041;-87
2023/08/11 08:11:42;;;;;;;7.80;4.30;;;;;;;21.31;82.02;101754.38;5035185;28;20068;-87
2023/08/11 08:14:08;;;;;;;5.75;4.10;;;;;;;21.43;79.97;101751.41;5018216;28;20436;-87
2023/08/11 08:16:34;;;;;;;6.43;3.65;;;;;;;21.53;80.92;101746.00;5018235;28;20034;-87
2023/08/11 08:18:59;;;;;;;5.67;3.77;;;;;;;21.58;78.53;101743.25;5035146;28;20080;-87
2023/08/11 08:21:28;;;;;;;12.27;4.10;;;;;;;21.64;79.75;101746.88;5036362;28;20052;-87
2023/08/11 08:27:23;;;;;;;7.85;3.55;;;;;;;21.82;79.67;101749.19;5035591;28;20067;-86
2023/08/11 08:29:49;;;;;;;7.15;3.78;;;;;;;21.90;81.42;101750.59;5035222;28;20088;-86
2023/08/11 08:32:14;;;;;;;5.33;3.30;;;;;;;21.97;78.40;101756.69;5018498;28;20041;-86
2023/08/11 08:34:39;;;;;;;5.53;3.30;;;;;;;22.07;78.72;101755.88;5018857;28;20497;-86
2023/08/11 08:37:05;;;;;;;6.83;3.20;;;;;;;22.20;79.75;101760.06;5035604;28;20375;-86
2023/08/11 08:39:31;;;;;;;7.78;3.58;;;;;;;22.29;78.78;101761.19;5033994;28;20033;-86
2023/08/11 08:42:00;;;;;;;6.07;3.60;;;;;;;22.39;77.30;101758.50;5035605;28;20083;-86
2023/08/11 08:44:26;;;;;;;4.82;3.30;;;;;;;22.49;75.26;101756.88;5035544;28;20018;-86
2023/08/11 08:46:54;;;;;;;5.97;3.65;;;;;;;22.57;75.24;101753.53;5035718;28;20033;-86
2023/08/11 08:49:26;;;;;;;7.53;3.30;;;;;;;22.71;77.98;101756.63;5034535;28;20057;-86
2023/08/11 08:51:56;;;;;;;10.00;3.95;;;;;;;22.83;76.13;101754.41;5034344;28;20033;-86
2023/08/11 08:54:22;;;;;;;7.37;3.67;;;;;;;22.90;73.82;101748.59;5034178;28;20045;-86
2023/08/11 08:56:51;;;;;;;4.03;3.00;;;;;;;22.97;73.69;101749.13;5034683;28;20601;-87
2023/08/11 08:59:16;;;;;;;6.88;3.35;;;;;;;23.04;73.51;101741.38;5017708;28;20036;-87
2023/08/11 09:01:43;;;;;;;9.77;3.40;;;;;;;23.16;74.14;101743.88;5017531;28;20060;-86
2023/08/11 09:04:08;;;;;;;5.50;3.20;;;;;;;23.27;73.34;101742.78;5034195;28;20399;-86
2023/08/11 09:06:34;;;;;;;5.88;3.63;;;;;;;23.40;72.20;101746.06;5033511;28;20018;-86
2023/08/11 09:09:01;;;;;;;5.68;2.95;;;;;;;23.53;72.72;101748.25;5033410;28;20033;-86
2023/08/11 09:11:27;;;;;;;4.00;3.10;;;;;;;23.67;72.77;101748.50;5033740;28;20445;-86
2023/08/11 09:14:02;;;;;;;6.18;3.20;;;;;;;23.80;72.07;101747.88;5033319;28;20037;-87
2023/08/11 09:16:28;;;;;;;3.90;2.90;;;;;;;23.92;71.11;101753.13;5033923;28;20087;-86
2023/08/11 09:18:53;;;;;;;6.90;3.30;;;;;;;24.03;70.51;101742.81;5033808;28;20034;-87
2023/08/11 09:21:23;;;;;;;7.43;3.30;;;;;;;24.19;70.69;101743.56;5033888;28;20454;-87
2023/08/11 09:23:52;;;;;;;4.80;2.70;;;;;;;24.34;68.97;101746.25;5033721;28;20029;-86
2023/08/11 09:26:23;;;;;;;4.82;3.33;;;;;;;24.59;70.17;101738.06;5033396;28;20048;-86
2023/08/11 09:28:52;;;;;;;3.85;3.10;;;;;;;24.85;69.06;101744.25;5033594;28;20040;-86
2023/08/11 09:31:27;;;;;;;6.40;2.90;;;;;;;25.14;67.83;101741.50;5033341;28;20037;-86
2023/08/11 09:33:53;;;;;;;4.90;3.37;;;;;;;25.36;65.18;101735.47;5033385;28;20030;-86
2023/08/11 09:36:20;;;;;;;6.88;3.20;;;;;;;25.68;65.17;101733.16;5033736;28;20043;-86
2023/08/11 09:38:49;;;;;;;5.60;2.93;;;;;;;25.82;62.25;101739.66;5034944;28;20037;-86
2023/08/11 09:41:16;;;;;;;4.95;2.80;;;;;;;25.92;63.22;101733.13;5033168;28;20508;-86
2023/08/11 09:43:47;;;;;;;4.68;2.97;;;;;;;25.99;63.14;101736.38;5033128;28;20393;-86
2023/08/11 09:46:12;;;;;;;7.78;2.90;;;;;;;25.96;62.99;101730.59;5035013;28;20044;-87
2023/08/11 09:48:38;;;;;;;5.40;2.87;;;;;;;25.95;65.18;101731.69;5016690;28;20026;-87
2023/08/11 09:51:05;;;;;;;7.57;3.17;;;;;;;25.95;64.21;101731.69;5016185;28;20473;-87
2023/08/11 09:53:33;;;;;;;5.82;2.90;;;;;;;26.05;64.71;101732.41;5026332;28;20049;-86
2023/08/11 09:56:02;;;;;;;7.53;3.30;;;;;;;26.01;62.56;101730.53;5017061;28;20041;-86
2023/08/11 09:58:29;;;;;;;5.70;2.80;;;;;;;26.04;63.80;101729.94;5032945;28;20370;-87
2023/08/11 10:00:55;;;;;;;2.95;2.60;;;;;;;25.98;61.43;101729.13;5033262;28;20029;-87
2023/08/11 10:03:30;;;;;;;5.97;2.70;;;;;;;25.88;63.03;101740.38;5032702;28;20036;-87
2023/08/11 10:05:58;;;;;;;5.43;2.88;;;;;;;25.85;61.97;101740.97;5032741;28;20029;-86
2023/08/11 10:08:29;;;;;;;5.82;2.53;;;;;;;25.97;62.09;101737.78;5033513;28;20033;-86
2023/08/11 10:10:54;;;;;;;8.88;2.72;;;;;;;26.03;62.28;101737.44;5032416;28;20492;-86
2023/08/11 10:13:26;;;;;;;4.70;2.53;;;;;;;26.14;61.73;101740.91;5033774;28;20030;-87
2023/08/11 10:15:57;;;;;;;3.40;2.55;;;;;;;26.12;61.25;101739.53;5032604;28;20029;-86
2023/08/11 10:18:26;;;;;;;3.93;2.63;;;;;;;26.16;61.45;101730.31;5034160;28;20454;-86
2023/08/11 10:20:56;;;;;;;5.55;2.60;;;;;;;26.30;60.67;101737.91;5032629;28;20036;-86
2023/08/11 10:23:26;;;;;;;10.80;2.67;;;;;;;26.38;59.48;101734.44;5032383;28;20478;-86
2023/08/11 10:25:55;;;;;;;4.15;2.60;;;;;;;26.53;59.42;101730.59;5032246;28;20397;-87
2023/08/11 10:28:21;;;;;;;6.75;3.00;;;;;;;26.65;58.80;101744.03;5032189;28;20026;-87
2023/08/11 10:31:03;;;;;;;7.97;3.03;;;;;;;26.68;56.73;101735.97;5033411;28;20073;-87
2023/08/11 10:33:33;;;;;;;4.20;2.53;;;;;;;26.93;57.12;101725.53;5034247;28;20075;-87
2023/08/11 10:36:02;;;;;;;4.22;2.28;;;;;;;27.19;56.72;101720.28;5015793;28;20041;-86
2023/08/11 10:38:33;;;;;;;4.38;2.40;;;;;;;27.24;57.77;101724.94;5032310;28;20033;-87
2023/08/11 10:41:16;;;;;;;2.70;2.33;;;;;;;27.38;56.36;101727.78;5032357;28;20026;-87
2023/08/11 10:43:50;;;;;;;4.27;2.33;;;;;;;27.57;57.10;101725.72;5033308;28;20375;-88
2023/08/11 10:46:31;;;;;;;3.17;2.10;;;;;;;27.68;55.30;101731.06;5033282;28;20033;-86
2023/08/11 10:49:22;;;;;;;3.47;2.60;;;;;;;27.80;55.05;101725.78;5015424;28;20045;-87
2023/08/11 10:51:52;;;;;;;4.50;2.63;;;;;;;27.87;53.67;101723.41;5016569;28;20551;-87
2023/08/11 10:54:23;;;;;;;3.90;2.67;;;;;;;27.96;52.86;101729.91;5015992;28;20478;-87
2023/08/11 10:56:51;;;;;;;4.07;2.30;;;;;;;27.96;54.72;101729.06;5032854;28;20033;-87
2023/08/11 10:59:27;;;;;;;4.88;2.60;;;;;;;28.30;53.95;101719.41;5032483;28;20056;-87
2023/08/11 11:01:56;;;;;;;4.15;2.15;;;;;;;28.73;53.23;101720.91;5033012;28;20044;-90
2023/08/11 11:04:26;;;;;;;8.20;3.20;;;;;;;28.89;51.57;101708.19;5033311;28;20100;-87
2023/08/11 11:06:51;;;;;;;3.70;2.75;;;;;;;29.17;52.78;101714.44;5032173;28;20095;-87
2023/08/11 11:09:17;;;;;;;3.67;2.80;;;;;;;29.16;49.50;101718.38;5015414;28;20505;-84
2023/08/11 11:11:44;;;;;;;3.20;2.25;;;;;;;29.12;50.46;101722.97;5033604;28;20466;-85
2023/08/11 11:14:11;;;;;;;3.10;2.50;;;;;;;29.20;50.37;101719.41;5031787;28;20029;-84
2023/08/11 11:16:38;;;;;;;4.10;2.53;;;;;;;29.26;50.80;101722.88;5033464;28;20026;-84
2023/08/11 11:19:05;;;;;;;4.25;2.60;;;;;;;29.50;49.49;101722.50;5031831;28;20052;-85
2023/08/11 11:21:32;;;;;;;6.43;2.53;;;;;;;30.28;48.56;101723.81;5036488;28;20045;-84
2023/08/11 11:23:58;;;;;;;4.78;2.40;;;;;;;31.54;45.35;101714.50;5036252;28;20029;-84
2023/08/11 11:26:28;;;;;;;5.63;2.77;;;;;;;33.69;41.61;101718.75;5035681;28;20485;-84
2023/08/11 11:28:58;;;;;;;6.55;2.60;;;;;;;35.02;36.54;101698.44;5036942;28;20036;-84
2023/08/11 11:31:26;;;;;;;3.28;2.70;;;;;;;35.20;36.57;101713.81;5035408;28;20022;-84
2023/08/11 11:33:52;;;;;;;4.25;2.55;;;;;;;36.25;34.91;101719.91;5035640;28;20057;-85